<?xml version="1.0" encoding="UTF-8" standalone="no" ?>
<gpx xmlns="http://www.topografix.com/GPX/1/1" xmlns:xsi="http://www.w3.org/2001/XMLSchema-instance" xsi:schemaLocation="http://www.topografix.com/GPX/1/1 http://www.topografix.com/GPX/1/1/gpx.xsd" version="1.1" creator="VisuGPX - https://www.visugpx.com">
  <metadata>
    <name>Michelbach</name>
    <desc><![CDATA[marche pop Michelbach 2016]]></desc>
  </metadata>
  <trk>
    <name><![CDATA[Lac de la Seigneurie]]></name>
    <trkseg>
      <trkpt lat="47.76351" lon="7.11812">
        <ele>337.1</ele>
        <time>2016-08-20T13:16:30Z</time>
      </trkpt>
      <trkpt lat="47.76351" lon="7.11812">
        <ele>387</ele>
        <time>2016-08-20T13:16:33Z</time>
      </trkpt>
      <trkpt lat="47.76359" lon="7.11831">
        <ele>386</ele>
        <time>2016-08-20T13:16:43Z</time>
      </trkpt>
      <trkpt lat="47.76359" lon="7.11838">
        <ele>387</ele>
        <time>2016-08-20T13:16:48Z</time>
      </trkpt>
      <trkpt lat="47.76359" lon="7.11831">
        <ele>386</ele>
        <time>2016-08-20T13:16:57Z</time>
      </trkpt>
      <trkpt lat="47.76345" lon="7.11871">
        <ele>392</ele>
        <time>2016-08-20T13:17:54Z</time>
      </trkpt>
      <trkpt lat="47.76341" lon="7.11885">
        <ele>394</ele>
        <time>2016-08-20T13:18:02Z</time>
      </trkpt>
      <trkpt lat="47.76335" lon="7.11896">
        <ele>398</ele>
        <time>2016-08-20T13:18:11Z</time>
      </trkpt>
      <trkpt lat="47.76316" lon="7.11902">
        <ele>394</ele>
        <time>2016-08-20T13:18:27Z</time>
      </trkpt>
      <trkpt lat="47.76308" lon="7.11893">
        <ele>392</ele>
        <time>2016-08-20T13:18:36Z</time>
      </trkpt>
      <trkpt lat="47.76294" lon="7.11878">
        <ele>394</ele>
        <time>2016-08-20T13:18:49Z</time>
      </trkpt>
      <trkpt lat="47.76284" lon="7.11866">
        <ele>394</ele>
        <time>2016-08-20T13:18:59Z</time>
      </trkpt>
      <trkpt lat="47.76275" lon="7.11849">
        <ele>393</ele>
        <time>2016-08-20T13:19:13Z</time>
      </trkpt>
      <trkpt lat="47.76267" lon="7.11836">
        <ele>396</ele>
        <time>2016-08-20T13:19:27Z</time>
      </trkpt>
      <trkpt lat="47.7625" lon="7.11808">
        <ele>394</ele>
        <time>2016-08-20T13:19:46Z</time>
      </trkpt>
      <trkpt lat="47.76239" lon="7.11789">
        <ele>400</ele>
        <time>2016-08-20T13:20:01Z</time>
      </trkpt>
      <trkpt lat="47.76231" lon="7.11774">
        <ele>401</ele>
        <time>2016-08-20T13:20:17Z</time>
      </trkpt>
      <trkpt lat="47.76226" lon="7.11792">
        <ele>405</ele>
        <time>2016-08-20T13:20:32Z</time>
      </trkpt>
      <trkpt lat="47.76225" lon="7.11817">
        <ele>405</ele>
        <time>2016-08-20T13:20:51Z</time>
      </trkpt>
      <trkpt lat="47.76222" lon="7.11831">
        <ele>406</ele>
        <time>2016-08-20T13:20:57Z</time>
      </trkpt>
      <trkpt lat="47.76223" lon="7.11838">
        <ele>407</ele>
        <time>2016-08-20T13:21:01Z</time>
      </trkpt>
      <trkpt lat="47.76222" lon="7.11848">
        <ele>408</ele>
        <time>2016-08-20T13:21:08Z</time>
      </trkpt>
      <trkpt lat="47.76222" lon="7.11871">
        <ele>407</ele>
        <time>2016-08-20T13:21:18Z</time>
      </trkpt>
      <trkpt lat="47.7622" lon="7.11894">
        <ele>408</ele>
        <time>2016-08-20T13:21:32Z</time>
      </trkpt>
      <trkpt lat="47.76225" lon="7.11939">
        <ele>406</ele>
        <time>2016-08-20T13:22:20Z</time>
      </trkpt>
      <trkpt lat="47.76224" lon="7.11962">
        <ele>405</ele>
        <time>2016-08-20T13:22:31Z</time>
      </trkpt>
      <trkpt lat="47.76227" lon="7.11985">
        <ele>401</ele>
        <time>2016-08-20T13:22:46Z</time>
      </trkpt>
      <trkpt lat="47.76233" lon="7.12014">
        <ele>393</ele>
        <time>2016-08-20T13:23:05Z</time>
      </trkpt>
      <trkpt lat="47.76234" lon="7.1206">
        <ele>400</ele>
        <time>2016-08-20T13:23:23Z</time>
      </trkpt>
      <trkpt lat="47.76233" lon="7.12082">
        <ele>395</ele>
        <time>2016-08-20T13:23:38Z</time>
      </trkpt>
      <trkpt lat="47.7623" lon="7.1211">
        <ele>399</ele>
        <time>2016-08-20T13:23:54Z</time>
      </trkpt>
      <trkpt lat="47.76225" lon="7.12135">
        <ele>399</ele>
        <time>2016-08-20T13:24:06Z</time>
      </trkpt>
      <trkpt lat="47.76221" lon="7.12156">
        <ele>400</ele>
        <time>2016-08-20T13:24:14Z</time>
      </trkpt>
      <trkpt lat="47.76219" lon="7.12166">
        <ele>400</ele>
        <time>2016-08-20T13:24:20Z</time>
      </trkpt>
      <trkpt lat="47.76215" lon="7.12187">
        <ele>401</ele>
        <time>2016-08-20T13:24:34Z</time>
      </trkpt>
      <trkpt lat="47.76206" lon="7.12202">
        <ele>404</ele>
        <time>2016-08-20T13:24:41Z</time>
      </trkpt>
      <trkpt lat="47.76201" lon="7.12205">
        <ele>401</ele>
        <time>2016-08-20T13:24:45Z</time>
      </trkpt>
      <trkpt lat="47.76191" lon="7.12202">
        <ele>400</ele>
        <time>2016-08-20T13:24:55Z</time>
      </trkpt>
      <trkpt lat="47.76172" lon="7.12199">
        <ele>397</ele>
        <time>2016-08-20T13:25:08Z</time>
      </trkpt>
      <trkpt lat="47.76157" lon="7.12198">
        <ele>397</ele>
        <time>2016-08-20T13:25:23Z</time>
      </trkpt>
      <trkpt lat="47.76143" lon="7.12188">
        <ele>399</ele>
        <time>2016-08-20T13:25:37Z</time>
      </trkpt>
      <trkpt lat="47.76118" lon="7.12187">
        <ele>388</ele>
        <time>2016-08-20T13:25:54Z</time>
      </trkpt>
      <trkpt lat="47.76109" lon="7.12192">
        <ele>386</ele>
        <time>2016-08-20T13:26:04Z</time>
      </trkpt>
      <trkpt lat="47.76105" lon="7.12222">
        <ele>390</ele>
        <time>2016-08-20T13:26:22Z</time>
      </trkpt>
      <trkpt lat="47.76095" lon="7.12242">
        <ele>386</ele>
        <time>2016-08-20T13:26:31Z</time>
      </trkpt>
      <trkpt lat="47.76092" lon="7.12252">
        <ele>389</ele>
        <time>2016-08-20T13:26:42Z</time>
      </trkpt>
      <trkpt lat="47.7608" lon="7.12271">
        <ele>389</ele>
        <time>2016-08-20T13:26:56Z</time>
      </trkpt>
      <trkpt lat="47.76065" lon="7.12302">
        <ele>386</ele>
        <time>2016-08-20T13:27:13Z</time>
      </trkpt>
      <trkpt lat="47.76054" lon="7.12318">
        <ele>387</ele>
        <time>2016-08-20T13:27:29Z</time>
      </trkpt>
      <trkpt lat="47.76049" lon="7.12337">
        <ele>387</ele>
        <time>2016-08-20T13:27:38Z</time>
      </trkpt>
      <trkpt lat="47.76043" lon="7.12353">
        <ele>388</ele>
        <time>2016-08-20T13:27:47Z</time>
      </trkpt>
      <trkpt lat="47.76065" lon="7.12359">
        <ele>392</ele>
        <time>2016-08-20T13:28:03Z</time>
      </trkpt>
      <trkpt lat="47.76075" lon="7.1236">
        <ele>395</ele>
        <time>2016-08-20T13:28:16Z</time>
      </trkpt>
      <trkpt lat="47.76099" lon="7.12367">
        <ele>397</ele>
        <time>2016-08-20T13:28:41Z</time>
      </trkpt>
      <trkpt lat="47.76108" lon="7.1237">
        <ele>404</ele>
        <time>2016-08-20T13:28:50Z</time>
      </trkpt>
      <trkpt lat="47.7612" lon="7.12372">
        <ele>406</ele>
        <time>2016-08-20T13:29:04Z</time>
      </trkpt>
      <trkpt lat="47.76135" lon="7.12382">
        <ele>407</ele>
        <time>2016-08-20T13:29:25Z</time>
      </trkpt>
      <trkpt lat="47.76149" lon="7.12383">
        <ele>411</ele>
        <time>2016-08-20T13:29:36Z</time>
      </trkpt>
      <trkpt lat="47.76167" lon="7.12386">
        <ele>410</ele>
        <time>2016-08-20T13:29:51Z</time>
      </trkpt>
      <trkpt lat="47.76177" lon="7.12391">
        <ele>410</ele>
        <time>2016-08-20T13:30:00Z</time>
      </trkpt>
      <trkpt lat="47.76181" lon="7.12394">
        <ele>409</ele>
        <time>2016-08-20T13:30:07Z</time>
      </trkpt>
      <trkpt lat="47.76187" lon="7.12405">
        <ele>410</ele>
        <time>2016-08-20T13:30:19Z</time>
      </trkpt>
      <trkpt lat="47.76194" lon="7.12409">
        <ele>413</ele>
        <time>2016-08-20T13:30:34Z</time>
      </trkpt>
      <trkpt lat="47.76204" lon="7.12422">
        <ele>412</ele>
        <time>2016-08-20T13:30:45Z</time>
      </trkpt>
      <trkpt lat="47.76222" lon="7.12442">
        <ele>412</ele>
        <time>2016-08-20T13:31:02Z</time>
      </trkpt>
      <trkpt lat="47.76239" lon="7.1246">
        <ele>410</ele>
        <time>2016-08-20T13:31:21Z</time>
      </trkpt>
      <trkpt lat="47.76251" lon="7.12481">
        <ele>407</ele>
        <time>2016-08-20T13:31:34Z</time>
      </trkpt>
      <trkpt lat="47.76259" lon="7.12491">
        <ele>404</ele>
        <time>2016-08-20T13:31:42Z</time>
      </trkpt>
      <trkpt lat="47.76276" lon="7.12512">
        <ele>398</ele>
        <time>2016-08-20T13:31:57Z</time>
      </trkpt>
      <trkpt lat="47.76299" lon="7.12525">
        <ele>401</ele>
        <time>2016-08-20T13:32:16Z</time>
      </trkpt>
      <trkpt lat="47.76318" lon="7.12542">
        <ele>405</ele>
        <time>2016-08-20T13:32:33Z</time>
      </trkpt>
      <trkpt lat="47.76324" lon="7.12562">
        <ele>396</ele>
        <time>2016-08-20T13:32:49Z</time>
      </trkpt>
      <trkpt lat="47.76331" lon="7.12576">
        <ele>390</ele>
        <time>2016-08-20T13:33:00Z</time>
      </trkpt>
      <trkpt lat="47.76352" lon="7.12595">
        <ele>396</ele>
        <time>2016-08-20T13:33:20Z</time>
      </trkpt>
      <trkpt lat="47.76369" lon="7.12619">
        <ele>392</ele>
        <time>2016-08-20T13:33:42Z</time>
      </trkpt>
      <trkpt lat="47.7638" lon="7.12634">
        <ele>390</ele>
        <time>2016-08-20T13:33:54Z</time>
      </trkpt>
      <trkpt lat="47.76395" lon="7.12645">
        <ele>388</ele>
        <time>2016-08-20T13:34:07Z</time>
      </trkpt>
      <trkpt lat="47.76407" lon="7.12655">
        <ele>387</ele>
        <time>2016-08-20T13:34:18Z</time>
      </trkpt>
      <trkpt lat="47.76423" lon="7.12675">
        <ele>385</ele>
        <time>2016-08-20T13:34:34Z</time>
      </trkpt>
      <trkpt lat="47.76438" lon="7.12695">
        <ele>387</ele>
        <time>2016-08-20T13:34:51Z</time>
      </trkpt>
      <trkpt lat="47.7645" lon="7.12711">
        <ele>384</ele>
        <time>2016-08-20T13:35:05Z</time>
      </trkpt>
      <trkpt lat="47.76462" lon="7.1273">
        <ele>383</ele>
        <time>2016-08-20T13:35:20Z</time>
      </trkpt>
      <trkpt lat="47.76481" lon="7.12748">
        <ele>382</ele>
        <time>2016-08-20T13:35:37Z</time>
      </trkpt>
      <trkpt lat="47.76495" lon="7.12758">
        <ele>383</ele>
        <time>2016-08-20T13:35:48Z</time>
      </trkpt>
      <trkpt lat="47.76506" lon="7.12767">
        <ele>384</ele>
        <time>2016-08-20T13:35:54Z</time>
      </trkpt>
      <trkpt lat="47.76516" lon="7.12783">
        <ele>380</ele>
        <time>2016-08-20T13:36:06Z</time>
      </trkpt>
      <trkpt lat="47.76535" lon="7.128">
        <ele>386</ele>
        <time>2016-08-20T13:36:22Z</time>
      </trkpt>
      <trkpt lat="47.76549" lon="7.1281">
        <ele>385</ele>
        <time>2016-08-20T13:36:32Z</time>
      </trkpt>
      <trkpt lat="47.76564" lon="7.12824">
        <ele>387</ele>
        <time>2016-08-20T13:36:46Z</time>
      </trkpt>
      <trkpt lat="47.7658" lon="7.12839">
        <ele>386</ele>
        <time>2016-08-20T13:37:01Z</time>
      </trkpt>
      <trkpt lat="47.76591" lon="7.1285">
        <ele>385</ele>
        <time>2016-08-20T13:37:13Z</time>
      </trkpt>
      <trkpt lat="47.76608" lon="7.12866">
        <ele>382</ele>
        <time>2016-08-20T13:37:32Z</time>
      </trkpt>
      <trkpt lat="47.76626" lon="7.12882">
        <ele>382</ele>
        <time>2016-08-20T13:37:48Z</time>
      </trkpt>
      <trkpt lat="47.76637" lon="7.12895">
        <ele>379</ele>
        <time>2016-08-20T13:38:01Z</time>
      </trkpt>
      <trkpt lat="47.76655" lon="7.12914">
        <ele>375</ele>
        <time>2016-08-20T13:38:21Z</time>
      </trkpt>
      <trkpt lat="47.76671" lon="7.12929">
        <ele>372</ele>
        <time>2016-08-20T13:38:38Z</time>
      </trkpt>
      <trkpt lat="47.76684" lon="7.12942">
        <ele>373</ele>
        <time>2016-08-20T13:38:51Z</time>
      </trkpt>
      <trkpt lat="47.76697" lon="7.12954">
        <ele>373</ele>
        <time>2016-08-20T13:39:05Z</time>
      </trkpt>
      <trkpt lat="47.76714" lon="7.12969">
        <ele>373</ele>
        <time>2016-08-20T13:39:21Z</time>
      </trkpt>
      <trkpt lat="47.76731" lon="7.12986">
        <ele>373</ele>
        <time>2016-08-20T13:39:36Z</time>
      </trkpt>
      <trkpt lat="47.76742" lon="7.12999">
        <ele>373</ele>
        <time>2016-08-20T13:39:49Z</time>
      </trkpt>
      <trkpt lat="47.76733" lon="7.13019">
        <ele>373</ele>
        <time>2016-08-20T13:40:03Z</time>
      </trkpt>
      <trkpt lat="47.76721" lon="7.13045">
        <ele>371</ele>
        <time>2016-08-20T13:40:20Z</time>
      </trkpt>
      <trkpt lat="47.76716" lon="7.13059">
        <ele>369</ele>
        <time>2016-08-20T13:40:29Z</time>
      </trkpt>
      <trkpt lat="47.76704" lon="7.13081">
        <ele>369</ele>
        <time>2016-08-20T13:40:43Z</time>
      </trkpt>
      <trkpt lat="47.76695" lon="7.13105">
        <ele>367</ele>
        <time>2016-08-20T13:40:57Z</time>
      </trkpt>
      <trkpt lat="47.76686" lon="7.13127">
        <ele>369</ele>
        <time>2016-08-20T13:41:12Z</time>
      </trkpt>
      <trkpt lat="47.76676" lon="7.13148">
        <ele>367</ele>
        <time>2016-08-20T13:41:26Z</time>
      </trkpt>
      <trkpt lat="47.76663" lon="7.13182">
        <ele>367</ele>
        <time>2016-08-20T13:41:45Z</time>
      </trkpt>
      <trkpt lat="47.76655" lon="7.13196">
        <ele>366</ele>
        <time>2016-08-20T13:41:55Z</time>
      </trkpt>
      <trkpt lat="47.76647" lon="7.13209">
        <ele>368</ele>
        <time>2016-08-20T13:42:03Z</time>
      </trkpt>
      <trkpt lat="47.76635" lon="7.13231">
        <ele>369</ele>
        <time>2016-08-20T13:42:17Z</time>
      </trkpt>
      <trkpt lat="47.76622" lon="7.13255">
        <ele>369</ele>
        <time>2016-08-20T13:42:34Z</time>
      </trkpt>
      <trkpt lat="47.76608" lon="7.13276">
        <ele>371</ele>
        <time>2016-08-20T13:42:49Z</time>
      </trkpt>
      <trkpt lat="47.76596" lon="7.13296">
        <ele>373</ele>
        <time>2016-08-20T13:43:06Z</time>
      </trkpt>
      <trkpt lat="47.76577" lon="7.13327">
        <ele>375</ele>
        <time>2016-08-20T13:43:25Z</time>
      </trkpt>
      <trkpt lat="47.7657" lon="7.13337">
        <ele>373</ele>
        <time>2016-08-20T13:43:35Z</time>
      </trkpt>
      <trkpt lat="47.76566" lon="7.13342">
        <ele>375</ele>
        <time>2016-08-20T13:43:39Z</time>
      </trkpt>
      <trkpt lat="47.76557" lon="7.13355">
        <ele>375</ele>
        <time>2016-08-20T13:43:50Z</time>
      </trkpt>
      <trkpt lat="47.76545" lon="7.13371">
        <ele>371</ele>
        <time>2016-08-20T13:44:01Z</time>
      </trkpt>
      <trkpt lat="47.76534" lon="7.13389">
        <ele>371</ele>
        <time>2016-08-20T13:44:15Z</time>
      </trkpt>
      <trkpt lat="47.76525" lon="7.13413">
        <ele>372</ele>
        <time>2016-08-20T13:44:32Z</time>
      </trkpt>
      <trkpt lat="47.76521" lon="7.13433">
        <ele>371</ele>
        <time>2016-08-20T13:44:44Z</time>
      </trkpt>
      <trkpt lat="47.76528" lon="7.13448">
        <ele>372</ele>
        <time>2016-08-20T13:44:55Z</time>
      </trkpt>
      <trkpt lat="47.76532" lon="7.13477">
        <ele>370</ele>
        <time>2016-08-20T13:45:13Z</time>
      </trkpt>
      <trkpt lat="47.76528" lon="7.1349">
        <ele>370</ele>
        <time>2016-08-20T13:45:20Z</time>
      </trkpt>
      <trkpt lat="47.7653" lon="7.13503">
        <ele>375</ele>
        <time>2016-08-20T13:45:33Z</time>
      </trkpt>
      <trkpt lat="47.76528" lon="7.13542">
        <ele>377</ele>
        <time>2016-08-20T13:45:48Z</time>
      </trkpt>
      <trkpt lat="47.7652" lon="7.13566">
        <ele>373</ele>
        <time>2016-08-20T13:46:00Z</time>
      </trkpt>
      <trkpt lat="47.76513" lon="7.1358">
        <ele>370</ele>
        <time>2016-08-20T13:46:09Z</time>
      </trkpt>
      <trkpt lat="47.76499" lon="7.13594">
        <ele>367</ele>
        <time>2016-08-20T13:46:21Z</time>
      </trkpt>
      <trkpt lat="47.76484" lon="7.13615">
        <ele>368</ele>
        <time>2016-08-20T13:46:38Z</time>
      </trkpt>
      <trkpt lat="47.76474" lon="7.13629">
        <ele>365</ele>
        <time>2016-08-20T13:46:49Z</time>
      </trkpt>
      <trkpt lat="47.76468" lon="7.13642">
        <ele>365</ele>
        <time>2016-08-20T13:46:56Z</time>
      </trkpt>
      <trkpt lat="47.76455" lon="7.13663">
        <ele>364</ele>
        <time>2016-08-20T13:47:10Z</time>
      </trkpt>
      <trkpt lat="47.76447" lon="7.13688">
        <ele>365</ele>
        <time>2016-08-20T13:47:27Z</time>
      </trkpt>
      <trkpt lat="47.76436" lon="7.13699">
        <ele>361</ele>
        <time>2016-08-20T13:47:38Z</time>
      </trkpt>
      <trkpt lat="47.76423" lon="7.13729">
        <ele>359</ele>
        <time>2016-08-20T13:47:57Z</time>
      </trkpt>
      <trkpt lat="47.7641" lon="7.13753">
        <ele>360</ele>
        <time>2016-08-20T13:48:14Z</time>
      </trkpt>
      <trkpt lat="47.76391" lon="7.1376">
        <ele>356</ele>
        <time>2016-08-20T13:48:28Z</time>
      </trkpt>
      <trkpt lat="47.76373" lon="7.13772">
        <ele>356</ele>
        <time>2016-08-20T13:48:42Z</time>
      </trkpt>
      <trkpt lat="47.76357" lon="7.13785">
        <ele>355</ele>
        <time>2016-08-20T13:48:57Z</time>
      </trkpt>
      <trkpt lat="47.76343" lon="7.13798">
        <ele>358</ele>
        <time>2016-08-20T13:49:11Z</time>
      </trkpt>
      <trkpt lat="47.76329" lon="7.13814">
        <ele>358</ele>
        <time>2016-08-20T13:49:26Z</time>
      </trkpt>
      <trkpt lat="47.76313" lon="7.13829">
        <ele>361</ele>
        <time>2016-08-20T13:49:42Z</time>
      </trkpt>
      <trkpt lat="47.76299" lon="7.13847">
        <ele>361</ele>
        <time>2016-08-20T13:49:58Z</time>
      </trkpt>
      <trkpt lat="47.76299" lon="7.13847">
        <ele>361</ele>
        <time>2016-08-20T13:50:06Z</time>
      </trkpt>
      <trkpt lat="47.76299" lon="7.13858">
        <ele>361</ele>
        <time>2016-08-20T13:50:11Z</time>
      </trkpt>
      <trkpt lat="47.76299" lon="7.13882">
        <ele>361</ele>
        <time>2016-08-20T13:50:26Z</time>
      </trkpt>
      <trkpt lat="47.76297" lon="7.13901">
        <ele>358</ele>
        <time>2016-08-20T13:50:38Z</time>
      </trkpt>
      <trkpt lat="47.76298" lon="7.13934">
        <ele>358</ele>
        <time>2016-08-20T13:50:54Z</time>
      </trkpt>
      <trkpt lat="47.76294" lon="7.13954">
        <ele>362</ele>
        <time>2016-08-20T13:51:03Z</time>
      </trkpt>
      <trkpt lat="47.76292" lon="7.13981">
        <ele>362</ele>
        <time>2016-08-20T13:51:20Z</time>
      </trkpt>
      <trkpt lat="47.76284" lon="7.14012">
        <ele>359</ele>
        <time>2016-08-20T13:51:37Z</time>
      </trkpt>
      <trkpt lat="47.76278" lon="7.14033">
        <ele>357</ele>
        <time>2016-08-20T13:51:50Z</time>
      </trkpt>
      <trkpt lat="47.76272" lon="7.14054">
        <ele>359</ele>
        <time>2016-08-20T13:52:04Z</time>
      </trkpt>
      <trkpt lat="47.76261" lon="7.14082">
        <ele>358</ele>
        <time>2016-08-20T13:52:20Z</time>
      </trkpt>
      <trkpt lat="47.76257" lon="7.14094">
        <ele>357</ele>
        <time>2016-08-20T13:52:28Z</time>
      </trkpt>
      <trkpt lat="47.76251" lon="7.14109">
        <ele>359</ele>
        <time>2016-08-20T13:52:37Z</time>
      </trkpt>
      <trkpt lat="47.76244" lon="7.14127">
        <ele>360</ele>
        <time>2016-08-20T13:52:49Z</time>
      </trkpt>
      <trkpt lat="47.76233" lon="7.14159">
        <ele>361</ele>
        <time>2016-08-20T13:53:07Z</time>
      </trkpt>
      <trkpt lat="47.76232" lon="7.14185">
        <ele>358</ele>
        <time>2016-08-20T13:53:23Z</time>
      </trkpt>
      <trkpt lat="47.76232" lon="7.14218">
        <ele>357</ele>
        <time>2016-08-20T13:53:39Z</time>
      </trkpt>
      <trkpt lat="47.76227" lon="7.14246">
        <ele>359</ele>
        <time>2016-08-20T13:53:52Z</time>
      </trkpt>
      <trkpt lat="47.76226" lon="7.14258">
        <ele>358</ele>
        <time>2016-08-20T13:53:59Z</time>
      </trkpt>
      <trkpt lat="47.76222" lon="7.14283">
        <ele>359</ele>
        <time>2016-08-20T13:54:11Z</time>
      </trkpt>
      <trkpt lat="47.76216" lon="7.14306">
        <ele>356</ele>
        <time>2016-08-20T13:54:27Z</time>
      </trkpt>
      <trkpt lat="47.76207" lon="7.14329">
        <ele>358</ele>
        <time>2016-08-20T13:54:38Z</time>
      </trkpt>
      <trkpt lat="47.76193" lon="7.14341">
        <ele>356</ele>
        <time>2016-08-20T13:54:51Z</time>
      </trkpt>
      <trkpt lat="47.76179" lon="7.14339">
        <ele>353</ele>
        <time>2016-08-20T13:55:04Z</time>
      </trkpt>
      <trkpt lat="47.76163" lon="7.14337">
        <ele>355</ele>
        <time>2016-08-20T13:55:16Z</time>
      </trkpt>
      <trkpt lat="47.76151" lon="7.14337">
        <ele>353</ele>
        <time>2016-08-20T13:55:25Z</time>
      </trkpt>
      <trkpt lat="47.76134" lon="7.14345">
        <ele>354</ele>
        <time>2016-08-20T13:55:41Z</time>
      </trkpt>
      <trkpt lat="47.76134" lon="7.14377">
        <ele>356</ele>
        <time>2016-08-20T13:56:00Z</time>
      </trkpt>
      <trkpt lat="47.76134" lon="7.14377">
        <ele>356</ele>
        <time>2016-08-20T13:56:08Z</time>
      </trkpt>
      <trkpt lat="47.76141" lon="7.14409">
        <ele>353</ele>
        <time>2016-08-20T13:56:19Z</time>
      </trkpt>
      <trkpt lat="47.76143" lon="7.14437">
        <ele>354</ele>
        <time>2016-08-20T13:56:34Z</time>
      </trkpt>
      <trkpt lat="47.76144" lon="7.14472">
        <ele>352</ele>
        <time>2016-08-20T13:56:51Z</time>
      </trkpt>
      <trkpt lat="47.76145" lon="7.14478">
        <ele>352</ele>
        <time>2016-08-20T13:56:55Z</time>
      </trkpt>
      <trkpt lat="47.76146" lon="7.14492">
        <ele>352</ele>
        <time>2016-08-20T13:57:05Z</time>
      </trkpt>
      <trkpt lat="47.76146" lon="7.14523">
        <ele>349</ele>
        <time>2016-08-20T13:57:23Z</time>
      </trkpt>
      <trkpt lat="47.76151" lon="7.14557">
        <ele>351</ele>
        <time>2016-08-20T13:57:39Z</time>
      </trkpt>
      <trkpt lat="47.76156" lon="7.14583">
        <ele>353</ele>
        <time>2016-08-20T13:57:52Z</time>
      </trkpt>
      <trkpt lat="47.76155" lon="7.14605">
        <ele>353</ele>
        <time>2016-08-20T13:58:05Z</time>
      </trkpt>
      <trkpt lat="47.7616" lon="7.14633">
        <ele>352</ele>
        <time>2016-08-20T13:58:20Z</time>
      </trkpt>
      <trkpt lat="47.76161" lon="7.14652">
        <ele>353</ele>
        <time>2016-08-20T13:58:31Z</time>
      </trkpt>
      <trkpt lat="47.76156" lon="7.14683">
        <ele>353</ele>
        <time>2016-08-20T13:58:48Z</time>
      </trkpt>
      <trkpt lat="47.76138" lon="7.14698">
        <ele>351</ele>
        <time>2016-08-20T13:59:06Z</time>
      </trkpt>
      <trkpt lat="47.76121" lon="7.14714">
        <ele>354</ele>
        <time>2016-08-20T13:59:22Z</time>
      </trkpt>
      <trkpt lat="47.76106" lon="7.14725">
        <ele>353</ele>
        <time>2016-08-20T13:59:38Z</time>
      </trkpt>
      <trkpt lat="47.76101" lon="7.14727">
        <ele>351</ele>
        <time>2016-08-20T13:59:43Z</time>
      </trkpt>
      <trkpt lat="47.76093" lon="7.14731">
        <ele>353</ele>
        <time>2016-08-20T13:59:56Z</time>
      </trkpt>
      <trkpt lat="47.76077" lon="7.1474">
        <ele>352</ele>
        <time>2016-08-20T14:00:10Z</time>
      </trkpt>
      <trkpt lat="47.76062" lon="7.1476">
        <ele>350</ele>
        <time>2016-08-20T14:00:27Z</time>
      </trkpt>
      <trkpt lat="47.76047" lon="7.14766">
        <ele>352</ele>
        <time>2016-08-20T14:00:39Z</time>
      </trkpt>
      <trkpt lat="47.76031" lon="7.14779">
        <ele>352</ele>
        <time>2016-08-20T14:00:53Z</time>
      </trkpt>
      <trkpt lat="47.76018" lon="7.14797">
        <ele>351</ele>
        <time>2016-08-20T14:01:08Z</time>
      </trkpt>
      <trkpt lat="47.76005" lon="7.14809">
        <ele>355</ele>
        <time>2016-08-20T14:01:18Z</time>
      </trkpt>
      <trkpt lat="47.75993" lon="7.14824">
        <ele>356</ele>
        <time>2016-08-20T14:01:29Z</time>
      </trkpt>
      <trkpt lat="47.75984" lon="7.14839">
        <ele>354</ele>
        <time>2016-08-20T14:01:41Z</time>
      </trkpt>
      <trkpt lat="47.75978" lon="7.14854">
        <ele>353</ele>
        <time>2016-08-20T14:01:56Z</time>
      </trkpt>
      <trkpt lat="47.75967" lon="7.14866">
        <ele>354</ele>
        <time>2016-08-20T14:02:10Z</time>
      </trkpt>
      <trkpt lat="47.75947" lon="7.14881">
        <ele>354</ele>
        <time>2016-08-20T14:02:25Z</time>
      </trkpt>
      <trkpt lat="47.75944" lon="7.14882">
        <ele>354</ele>
        <time>2016-08-20T14:02:30Z</time>
      </trkpt>
      <trkpt lat="47.75947" lon="7.14881">
        <ele>354</ele>
        <time>2016-08-20T14:02:39Z</time>
      </trkpt>
      <trkpt lat="47.75932" lon="7.14898">
        <ele>350</ele>
        <time>2016-08-20T14:03:17Z</time>
      </trkpt>
      <trkpt lat="47.75919" lon="7.14906">
        <ele>353</ele>
        <time>2016-08-20T14:03:28Z</time>
      </trkpt>
      <trkpt lat="47.75897" lon="7.14911">
        <ele>353</ele>
        <time>2016-08-20T14:03:45Z</time>
      </trkpt>
      <trkpt lat="47.75876" lon="7.14924">
        <ele>355</ele>
        <time>2016-08-20T14:04:01Z</time>
      </trkpt>
      <trkpt lat="47.75853" lon="7.14937">
        <ele>357</ele>
        <time>2016-08-20T14:04:17Z</time>
      </trkpt>
      <trkpt lat="47.75838" lon="7.14943">
        <ele>355</ele>
        <time>2016-08-20T14:04:31Z</time>
      </trkpt>
      <trkpt lat="47.75819" lon="7.14954">
        <ele>352</ele>
        <time>2016-08-20T14:04:46Z</time>
      </trkpt>
      <trkpt lat="47.758" lon="7.14968">
        <ele>353</ele>
        <time>2016-08-20T14:04:59Z</time>
      </trkpt>
      <trkpt lat="47.75787" lon="7.14972">
        <ele>354</ele>
        <time>2016-08-20T14:05:10Z</time>
      </trkpt>
      <trkpt lat="47.75773" lon="7.1498">
        <ele>356</ele>
        <time>2016-08-20T14:05:22Z</time>
      </trkpt>
      <trkpt lat="47.75754" lon="7.14987">
        <ele>351</ele>
        <time>2016-08-20T14:05:38Z</time>
      </trkpt>
      <trkpt lat="47.75736" lon="7.14999">
        <ele>350</ele>
        <time>2016-08-20T14:05:53Z</time>
      </trkpt>
      <trkpt lat="47.75725" lon="7.15012">
        <ele>349</ele>
        <time>2016-08-20T14:06:01Z</time>
      </trkpt>
      <trkpt lat="47.75711" lon="7.1501">
        <ele>352</ele>
        <time>2016-08-20T14:06:13Z</time>
      </trkpt>
      <trkpt lat="47.75702" lon="7.1501">
        <ele>350</ele>
        <time>2016-08-20T14:06:23Z</time>
      </trkpt>
      <trkpt lat="47.75685" lon="7.15019">
        <ele>354</ele>
        <time>2016-08-20T14:06:33Z</time>
      </trkpt>
      <trkpt lat="47.75666" lon="7.15024">
        <ele>357</ele>
        <time>2016-08-20T14:06:48Z</time>
      </trkpt>
      <trkpt lat="47.7565" lon="7.15035">
        <ele>360</ele>
        <time>2016-08-20T14:07:00Z</time>
      </trkpt>
      <trkpt lat="47.75637" lon="7.15039">
        <ele>361</ele>
        <time>2016-08-20T14:07:10Z</time>
      </trkpt>
      <trkpt lat="47.75629" lon="7.15042">
        <ele>356</ele>
        <time>2016-08-20T14:07:19Z</time>
      </trkpt>
      <trkpt lat="47.75603" lon="7.15043">
        <ele>355</ele>
        <time>2016-08-20T14:07:36Z</time>
      </trkpt>
      <trkpt lat="47.75592" lon="7.15053">
        <ele>357</ele>
        <time>2016-08-20T14:07:48Z</time>
      </trkpt>
      <trkpt lat="47.75575" lon="7.15064">
        <ele>357</ele>
        <time>2016-08-20T14:08:03Z</time>
      </trkpt>
      <trkpt lat="47.75567" lon="7.15071">
        <ele>360</ele>
        <time>2016-08-20T14:08:11Z</time>
      </trkpt>
      <trkpt lat="47.75549" lon="7.15088">
        <ele>361</ele>
        <time>2016-08-20T14:08:25Z</time>
      </trkpt>
      <trkpt lat="47.7554" lon="7.15092">
        <ele>363</ele>
        <time>2016-08-20T14:08:36Z</time>
      </trkpt>
      <trkpt lat="47.75524" lon="7.15122">
        <ele>358</ele>
        <time>2016-08-20T14:08:56Z</time>
      </trkpt>
      <trkpt lat="47.75516" lon="7.15129">
        <ele>353</ele>
        <time>2016-08-20T14:09:10Z</time>
      </trkpt>
      <trkpt lat="47.75507" lon="7.15151">
        <ele>359</ele>
        <time>2016-08-20T14:09:20Z</time>
      </trkpt>
      <trkpt lat="47.75501" lon="7.15161">
        <ele>357</ele>
        <time>2016-08-20T14:09:28Z</time>
      </trkpt>
      <trkpt lat="47.75487" lon="7.15188">
        <ele>357</ele>
        <time>2016-08-20T14:09:46Z</time>
      </trkpt>
      <trkpt lat="47.75477" lon="7.15216">
        <ele>357</ele>
        <time>2016-08-20T14:10:01Z</time>
      </trkpt>
      <trkpt lat="47.75467" lon="7.15236">
        <ele>358</ele>
        <time>2016-08-20T14:10:13Z</time>
      </trkpt>
      <trkpt lat="47.75458" lon="7.15248">
        <ele>360</ele>
        <time>2016-08-20T14:10:23Z</time>
      </trkpt>
      <trkpt lat="47.7544" lon="7.15246">
        <ele>356</ele>
        <time>2016-08-20T14:10:41Z</time>
      </trkpt>
      <trkpt lat="47.75426" lon="7.15238">
        <ele>355</ele>
        <time>2016-08-20T14:10:54Z</time>
      </trkpt>
      <trkpt lat="47.75408" lon="7.15229">
        <ele>356</ele>
        <time>2016-08-20T14:11:11Z</time>
      </trkpt>
      <trkpt lat="47.75393" lon="7.15224">
        <ele>358</ele>
        <time>2016-08-20T14:11:24Z</time>
      </trkpt>
      <trkpt lat="47.75371" lon="7.15217">
        <ele>359</ele>
        <time>2016-08-20T14:11:43Z</time>
      </trkpt>
      <trkpt lat="47.75353" lon="7.15208">
        <ele>360</ele>
        <time>2016-08-20T14:11:59Z</time>
      </trkpt>
      <trkpt lat="47.75336" lon="7.152">
        <ele>359</ele>
        <time>2016-08-20T14:12:15Z</time>
      </trkpt>
      <trkpt lat="47.75319" lon="7.15194">
        <ele>360</ele>
        <time>2016-08-20T14:12:30Z</time>
      </trkpt>
      <trkpt lat="47.75301" lon="7.15186">
        <ele>363</ele>
        <time>2016-08-20T14:12:43Z</time>
      </trkpt>
      <trkpt lat="47.7528" lon="7.15178">
        <ele>364</ele>
        <time>2016-08-20T14:13:01Z</time>
      </trkpt>
      <trkpt lat="47.75261" lon="7.15166">
        <ele>366</ele>
        <time>2016-08-20T14:13:17Z</time>
      </trkpt>
      <trkpt lat="47.75241" lon="7.15157">
        <ele>367</ele>
        <time>2016-08-20T14:13:33Z</time>
      </trkpt>
      <trkpt lat="47.7522" lon="7.15149">
        <ele>368</ele>
        <time>2016-08-20T14:13:49Z</time>
      </trkpt>
      <trkpt lat="47.75196" lon="7.1514">
        <ele>370</ele>
        <time>2016-08-20T14:14:07Z</time>
      </trkpt>
      <trkpt lat="47.75179" lon="7.15131">
        <ele>367</ele>
        <time>2016-08-20T14:14:21Z</time>
      </trkpt>
      <trkpt lat="47.75173" lon="7.15119">
        <ele>366</ele>
        <time>2016-08-20T14:14:31Z</time>
      </trkpt>
      <trkpt lat="47.7517" lon="7.1509">
        <ele>364</ele>
        <time>2016-08-20T14:14:48Z</time>
      </trkpt>
      <trkpt lat="47.75168" lon="7.15063">
        <ele>365</ele>
        <time>2016-08-20T14:15:03Z</time>
      </trkpt>
      <trkpt lat="47.75166" lon="7.15045">
        <ele>365</ele>
        <time>2016-08-20T14:15:14Z</time>
      </trkpt>
      <trkpt lat="47.75163" lon="7.15015">
        <ele>363</ele>
        <time>2016-08-20T14:15:31Z</time>
      </trkpt>
      <trkpt lat="47.7516" lon="7.14988">
        <ele>362</ele>
        <time>2016-08-20T14:15:47Z</time>
      </trkpt>
      <trkpt lat="47.75156" lon="7.14963">
        <ele>361</ele>
        <time>2016-08-20T14:16:01Z</time>
      </trkpt>
      <trkpt lat="47.75154" lon="7.14951">
        <ele>362</ele>
        <time>2016-08-20T14:16:08Z</time>
      </trkpt>
      <trkpt lat="47.75153" lon="7.14933">
        <ele>363</ele>
        <time>2016-08-20T14:16:18Z</time>
      </trkpt>
      <trkpt lat="47.75151" lon="7.14907">
        <ele>360</ele>
        <time>2016-08-20T14:16:32Z</time>
      </trkpt>
      <trkpt lat="47.75152" lon="7.14879">
        <ele>361</ele>
        <time>2016-08-20T14:16:47Z</time>
      </trkpt>
      <trkpt lat="47.75152" lon="7.14849">
        <ele>362</ele>
        <time>2016-08-20T14:17:04Z</time>
      </trkpt>
      <trkpt lat="47.75154" lon="7.14822">
        <ele>363</ele>
        <time>2016-08-20T14:17:19Z</time>
      </trkpt>
      <trkpt lat="47.75154" lon="7.14793">
        <ele>367</ele>
        <time>2016-08-20T14:17:34Z</time>
      </trkpt>
      <trkpt lat="47.75159" lon="7.14768">
        <ele>369</ele>
        <time>2016-08-20T14:17:47Z</time>
      </trkpt>
      <trkpt lat="47.75164" lon="7.14748">
        <ele>372</ele>
        <time>2016-08-20T14:18:05Z</time>
      </trkpt>
      <trkpt lat="47.75165" lon="7.1473">
        <ele>371</ele>
        <time>2016-08-20T14:18:16Z</time>
      </trkpt>
      <trkpt lat="47.75169" lon="7.14706">
        <ele>371</ele>
        <time>2016-08-20T14:18:26Z</time>
      </trkpt>
      <trkpt lat="47.75161" lon="7.14686">
        <ele>375</ele>
        <time>2016-08-20T14:18:37Z</time>
      </trkpt>
      <trkpt lat="47.75171" lon="7.14669">
        <ele>384</ele>
        <time>2016-08-20T14:18:50Z</time>
      </trkpt>
      <trkpt lat="47.75174" lon="7.14663">
        <ele>390</ele>
        <time>2016-08-20T14:18:55Z</time>
      </trkpt>
      <trkpt lat="47.75187" lon="7.14669">
        <ele>388</ele>
        <time>2016-08-20T14:19:10Z</time>
      </trkpt>
      <trkpt lat="47.75214" lon="7.14678">
        <ele>389</ele>
        <time>2016-08-20T14:19:28Z</time>
      </trkpt>
      <trkpt lat="47.75221" lon="7.14669">
        <ele>387</ele>
        <time>2016-08-20T14:19:39Z</time>
      </trkpt>
      <trkpt lat="47.75237" lon="7.14659">
        <ele>386</ele>
        <time>2016-08-20T14:19:51Z</time>
      </trkpt>
      <trkpt lat="47.75243" lon="7.14653">
        <ele>384</ele>
        <time>2016-08-20T14:19:58Z</time>
      </trkpt>
      <trkpt lat="47.75245" lon="7.14654">
        <ele>383</ele>
        <time>2016-08-20T14:20:08Z</time>
      </trkpt>
      <trkpt lat="47.75238" lon="7.14627">
        <ele>382</ele>
        <time>2016-08-20T14:20:56Z</time>
      </trkpt>
      <trkpt lat="47.75234" lon="7.14611">
        <ele>381</ele>
        <time>2016-08-20T14:21:03Z</time>
      </trkpt>
      <trkpt lat="47.75234" lon="7.14611">
        <ele>381</ele>
        <time>2016-08-20T14:21:08Z</time>
      </trkpt>
      <trkpt lat="47.75223" lon="7.14607">
        <ele>381</ele>
        <time>2016-08-20T14:21:12Z</time>
      </trkpt>
      <trkpt lat="47.75218" lon="7.14601">
        <ele>379</ele>
        <time>2016-08-20T14:21:17Z</time>
      </trkpt>
      <trkpt lat="47.75215" lon="7.14591">
        <ele>380</ele>
        <time>2016-08-20T14:21:28Z</time>
      </trkpt>
      <trkpt lat="47.75211" lon="7.1459">
        <ele>379</ele>
        <time>2016-08-20T14:21:33Z</time>
      </trkpt>
      <trkpt lat="47.75203" lon="7.14581">
        <ele>378</ele>
        <time>2016-08-20T14:21:44Z</time>
      </trkpt>
      <trkpt lat="47.75189" lon="7.14569">
        <ele>381</ele>
        <time>2016-08-20T14:21:53Z</time>
      </trkpt>
      <trkpt lat="47.75171" lon="7.14561">
        <ele>384</ele>
        <time>2016-08-20T14:22:02Z</time>
      </trkpt>
      <trkpt lat="47.75159" lon="7.14542">
        <ele>386</ele>
        <time>2016-08-20T14:22:13Z</time>
      </trkpt>
      <trkpt lat="47.75145" lon="7.14527">
        <ele>386</ele>
        <time>2016-08-20T14:22:23Z</time>
      </trkpt>
      <trkpt lat="47.75135" lon="7.14512">
        <ele>385</ele>
        <time>2016-08-20T14:22:36Z</time>
      </trkpt>
      <trkpt lat="47.75127" lon="7.14495">
        <ele>381</ele>
        <time>2016-08-20T14:22:51Z</time>
      </trkpt>
      <trkpt lat="47.75123" lon="7.14486">
        <ele>384</ele>
        <time>2016-08-20T14:23:02Z</time>
      </trkpt>
      <trkpt lat="47.75128" lon="7.14474">
        <ele>384</ele>
        <time>2016-08-20T14:23:14Z</time>
      </trkpt>
      <trkpt lat="47.75131" lon="7.14455">
        <ele>385</ele>
        <time>2016-08-20T14:23:22Z</time>
      </trkpt>
      <trkpt lat="47.75142" lon="7.14436">
        <ele>379</ele>
        <time>2016-08-20T14:23:34Z</time>
      </trkpt>
      <trkpt lat="47.75149" lon="7.14402">
        <ele>386</ele>
        <time>2016-08-20T14:23:50Z</time>
      </trkpt>
      <trkpt lat="47.75163" lon="7.14383">
        <ele>388</ele>
        <time>2016-08-20T14:24:01Z</time>
      </trkpt>
      <trkpt lat="47.75164" lon="7.14362">
        <ele>392</ele>
        <time>2016-08-20T14:24:14Z</time>
      </trkpt>
      <trkpt lat="47.75178" lon="7.14346">
        <ele>386</ele>
        <time>2016-08-20T14:24:30Z</time>
      </trkpt>
      <trkpt lat="47.75192" lon="7.14314">
        <ele>380</ele>
        <time>2016-08-20T14:24:45Z</time>
      </trkpt>
      <trkpt lat="47.75201" lon="7.14301">
        <ele>382</ele>
        <time>2016-08-20T14:24:51Z</time>
      </trkpt>
      <trkpt lat="47.75201" lon="7.14301">
        <ele>382</ele>
        <time>2016-08-20T14:24:57Z</time>
      </trkpt>
      <trkpt lat="47.75201" lon="7.14301">
        <ele>382</ele>
        <time>2016-08-20T14:24:58Z</time>
      </trkpt>
      <trkpt lat="47.75186" lon="7.14288">
        <ele>384</ele>
        <time>2016-08-20T14:25:10Z</time>
      </trkpt>
      <trkpt lat="47.75165" lon="7.14268">
        <ele>384</ele>
        <time>2016-08-20T14:25:27Z</time>
      </trkpt>
      <trkpt lat="47.75152" lon="7.14255">
        <ele>381</ele>
        <time>2016-08-20T14:25:42Z</time>
      </trkpt>
      <trkpt lat="47.75141" lon="7.1424">
        <ele>382</ele>
        <time>2016-08-20T14:25:55Z</time>
      </trkpt>
      <trkpt lat="47.75129" lon="7.1422">
        <ele>380</ele>
        <time>2016-08-20T14:26:07Z</time>
      </trkpt>
      <trkpt lat="47.75118" lon="7.14213">
        <ele>380</ele>
        <time>2016-08-20T14:26:13Z</time>
      </trkpt>
      <trkpt lat="47.75111" lon="7.14204">
        <ele>383</ele>
        <time>2016-08-20T14:26:21Z</time>
      </trkpt>
      <trkpt lat="47.75101" lon="7.14191">
        <ele>381</ele>
        <time>2016-08-20T14:26:33Z</time>
      </trkpt>
      <trkpt lat="47.75087" lon="7.14167">
        <ele>378</ele>
        <time>2016-08-20T14:26:46Z</time>
      </trkpt>
      <trkpt lat="47.75074" lon="7.14158">
        <ele>382</ele>
        <time>2016-08-20T14:26:58Z</time>
      </trkpt>
      <trkpt lat="47.75061" lon="7.14145">
        <ele>378</ele>
        <time>2016-08-20T14:27:14Z</time>
      </trkpt>
      <trkpt lat="47.75046" lon="7.14118">
        <ele>376</ele>
        <time>2016-08-20T14:27:39Z</time>
      </trkpt>
      <trkpt lat="47.75044" lon="7.14099">
        <ele>375</ele>
        <time>2016-08-20T14:27:52Z</time>
      </trkpt>
      <trkpt lat="47.75047" lon="7.14082">
        <ele>370</ele>
        <time>2016-08-20T14:28:02Z</time>
      </trkpt>
      <trkpt lat="47.75052" lon="7.14053">
        <ele>368</ele>
        <time>2016-08-20T14:28:16Z</time>
      </trkpt>
      <trkpt lat="47.75052" lon="7.14053">
        <ele>368</ele>
        <time>2016-08-20T14:28:22Z</time>
      </trkpt>
      <trkpt lat="47.75055" lon="7.14038">
        <ele>375</ele>
        <time>2016-08-20T14:28:29Z</time>
      </trkpt>
      <trkpt lat="47.75052" lon="7.14032">
        <ele>375</ele>
        <time>2016-08-20T14:28:32Z</time>
      </trkpt>
      <trkpt lat="47.75062" lon="7.14024">
        <ele>372</ele>
        <time>2016-08-20T14:28:46Z</time>
      </trkpt>
      <trkpt lat="47.75074" lon="7.14007">
        <ele>374</ele>
        <time>2016-08-20T14:29:03Z</time>
      </trkpt>
      <trkpt lat="47.75085" lon="7.13981">
        <ele>376</ele>
        <time>2016-08-20T14:29:22Z</time>
      </trkpt>
      <trkpt lat="47.75097" lon="7.13964">
        <ele>373</ele>
        <time>2016-08-20T14:29:39Z</time>
      </trkpt>
      <trkpt lat="47.75112" lon="7.13948">
        <ele>370</ele>
        <time>2016-08-20T14:29:59Z</time>
      </trkpt>
      <trkpt lat="47.75127" lon="7.1392">
        <ele>371</ele>
        <time>2016-08-20T14:30:17Z</time>
      </trkpt>
      <trkpt lat="47.75122" lon="7.13896">
        <ele>372</ele>
        <time>2016-08-20T14:30:33Z</time>
      </trkpt>
      <trkpt lat="47.75129" lon="7.13866">
        <ele>368</ele>
        <time>2016-08-20T14:30:52Z</time>
      </trkpt>
      <trkpt lat="47.75136" lon="7.13847">
        <ele>366</ele>
        <time>2016-08-20T14:31:03Z</time>
      </trkpt>
      <trkpt lat="47.75136" lon="7.13847">
        <ele>366</ele>
        <time>2016-08-20T14:31:09Z</time>
      </trkpt>
      <trkpt lat="47.75136" lon="7.13847">
        <ele>366</ele>
        <time>2016-08-20T14:31:10Z</time>
      </trkpt>
      <trkpt lat="47.75125" lon="7.13822">
        <ele>364</ele>
        <time>2016-08-20T14:31:20Z</time>
      </trkpt>
      <trkpt lat="47.75121" lon="7.13813">
        <ele>365</ele>
        <time>2016-08-20T14:31:31Z</time>
      </trkpt>
      <trkpt lat="47.7512" lon="7.13769">
        <ele>369</ele>
        <time>2016-08-20T14:32:55Z</time>
      </trkpt>
      <trkpt lat="47.75122" lon="7.13753">
        <ele>368</ele>
        <time>2016-08-20T14:33:05Z</time>
      </trkpt>
      <trkpt lat="47.75131" lon="7.13711">
        <ele>370</ele>
        <time>2016-08-20T14:33:25Z</time>
      </trkpt>
      <trkpt lat="47.75135" lon="7.1371">
        <ele>369</ele>
        <time>2016-08-20T14:33:27Z</time>
      </trkpt>
      <trkpt lat="47.75131" lon="7.13711">
        <ele>370</ele>
        <time>2016-08-20T14:33:33Z</time>
      </trkpt>
      <trkpt lat="47.75127" lon="7.13693">
        <ele>370</ele>
        <time>2016-08-20T14:33:42Z</time>
      </trkpt>
      <trkpt lat="47.75131" lon="7.13668">
        <ele>368</ele>
        <time>2016-08-20T14:33:57Z</time>
      </trkpt>
      <trkpt lat="47.75131" lon="7.13668">
        <ele>368</ele>
        <time>2016-08-20T14:34:05Z</time>
      </trkpt>
      <trkpt lat="47.75136" lon="7.13671">
        <ele>370</ele>
        <time>2016-08-20T14:34:06Z</time>
      </trkpt>
      <trkpt lat="47.75151" lon="7.13668">
        <ele>368</ele>
        <time>2016-08-20T14:34:21Z</time>
      </trkpt>
      <trkpt lat="47.75162" lon="7.13663">
        <ele>367</ele>
        <time>2016-08-20T14:34:26Z</time>
      </trkpt>
      <trkpt lat="47.75177" lon="7.13645">
        <ele>364</ele>
        <time>2016-08-20T14:34:37Z</time>
      </trkpt>
      <trkpt lat="47.75177" lon="7.13622">
        <ele>363</ele>
        <time>2016-08-20T14:34:50Z</time>
      </trkpt>
      <trkpt lat="47.75196" lon="7.13609">
        <ele>363</ele>
        <time>2016-08-20T14:35:03Z</time>
      </trkpt>
      <trkpt lat="47.75196" lon="7.13609">
        <ele>363</ele>
        <time>2016-08-20T14:35:08Z</time>
      </trkpt>
      <trkpt lat="47.75208" lon="7.13616">
        <ele>365</ele>
        <time>2016-08-20T14:35:12Z</time>
      </trkpt>
      <trkpt lat="47.75217" lon="7.13637">
        <ele>363</ele>
        <time>2016-08-20T14:35:22Z</time>
      </trkpt>
      <trkpt lat="47.75221" lon="7.13658">
        <ele>364</ele>
        <time>2016-08-20T14:35:35Z</time>
      </trkpt>
      <trkpt lat="47.75226" lon="7.13679">
        <ele>364</ele>
        <time>2016-08-20T14:35:48Z</time>
      </trkpt>
      <trkpt lat="47.75243" lon="7.1367">
        <ele>366</ele>
        <time>2016-08-20T14:36:01Z</time>
      </trkpt>
      <trkpt lat="47.75266" lon="7.13668">
        <ele>369</ele>
        <time>2016-08-20T14:36:16Z</time>
      </trkpt>
      <trkpt lat="47.75284" lon="7.13669">
        <ele>371</ele>
        <time>2016-08-20T14:36:29Z</time>
      </trkpt>
      <trkpt lat="47.75296" lon="7.13663">
        <ele>369</ele>
        <time>2016-08-20T14:36:43Z</time>
      </trkpt>
      <trkpt lat="47.75307" lon="7.13657">
        <ele>373</ele>
        <time>2016-08-20T14:36:51Z</time>
      </trkpt>
      <trkpt lat="47.75313" lon="7.13659">
        <ele>370</ele>
        <time>2016-08-20T14:37:03Z</time>
      </trkpt>
      <trkpt lat="47.75317" lon="7.1366">
        <ele>370</ele>
        <time>2016-08-20T14:37:07Z</time>
      </trkpt>
      <trkpt lat="47.7532" lon="7.13663">
        <ele>369</ele>
        <time>2016-08-20T14:37:15Z</time>
      </trkpt>
      <trkpt lat="47.75338" lon="7.13662">
        <ele>371</ele>
        <time>2016-08-20T14:37:37Z</time>
      </trkpt>
      <trkpt lat="47.75353" lon="7.13664">
        <ele>367</ele>
        <time>2016-08-20T14:37:46Z</time>
      </trkpt>
      <trkpt lat="47.75371" lon="7.13662">
        <ele>368</ele>
        <time>2016-08-20T14:37:53Z</time>
      </trkpt>
      <trkpt lat="47.7538" lon="7.13666">
        <ele>368</ele>
        <time>2016-08-20T14:38:04Z</time>
      </trkpt>
      <trkpt lat="47.75408" lon="7.13656">
        <ele>369</ele>
        <time>2016-08-20T14:38:20Z</time>
      </trkpt>
      <trkpt lat="47.75413" lon="7.13652">
        <ele>367</ele>
        <time>2016-08-20T14:38:25Z</time>
      </trkpt>
      <trkpt lat="47.75421" lon="7.13648">
        <ele>365</ele>
        <time>2016-08-20T14:38:37Z</time>
      </trkpt>
      <trkpt lat="47.75431" lon="7.13644">
        <ele>367</ele>
        <time>2016-08-20T14:38:46Z</time>
      </trkpt>
      <trkpt lat="47.75448" lon="7.13632">
        <ele>368</ele>
        <time>2016-08-20T14:39:00Z</time>
      </trkpt>
      <trkpt lat="47.75466" lon="7.13613">
        <ele>371</ele>
        <time>2016-08-20T14:39:18Z</time>
      </trkpt>
      <trkpt lat="47.75474" lon="7.13608">
        <ele>370</ele>
        <time>2016-08-20T14:39:26Z</time>
      </trkpt>
      <trkpt lat="47.75481" lon="7.13599">
        <ele>373</ele>
        <time>2016-08-20T14:39:43Z</time>
      </trkpt>
      <trkpt lat="47.75496" lon="7.13588">
        <ele>372</ele>
        <time>2016-08-20T14:39:56Z</time>
      </trkpt>
      <trkpt lat="47.75512" lon="7.13581">
        <ele>374</ele>
        <time>2016-08-20T14:40:09Z</time>
      </trkpt>
      <trkpt lat="47.75528" lon="7.13575">
        <ele>376</ele>
        <time>2016-08-20T14:40:14Z</time>
      </trkpt>
      <trkpt lat="47.75541" lon="7.13571">
        <ele>379</ele>
        <time>2016-08-20T14:40:28Z</time>
      </trkpt>
      <trkpt lat="47.75544" lon="7.1357">
        <ele>381</ele>
        <time>2016-08-20T14:40:30Z</time>
      </trkpt>
      <trkpt lat="47.75541" lon="7.13571">
        <ele>379</ele>
        <time>2016-08-20T14:40:36Z</time>
      </trkpt>
      <trkpt lat="47.75556" lon="7.13568">
        <ele>384</ele>
        <time>2016-08-20T14:40:44Z</time>
      </trkpt>
      <trkpt lat="47.7557" lon="7.1357">
        <ele>379</ele>
        <time>2016-08-20T14:40:56Z</time>
      </trkpt>
      <trkpt lat="47.75593" lon="7.13573">
        <ele>378</ele>
        <time>2016-08-20T14:41:10Z</time>
      </trkpt>
      <trkpt lat="47.7561" lon="7.13577">
        <ele>381</ele>
        <time>2016-08-20T14:41:23Z</time>
      </trkpt>
      <trkpt lat="47.75632" lon="7.13573">
        <ele>383</ele>
        <time>2016-08-20T14:41:31Z</time>
      </trkpt>
      <trkpt lat="47.75638" lon="7.13574">
        <ele>381</ele>
        <time>2016-08-20T14:41:48Z</time>
      </trkpt>
      <trkpt lat="47.75652" lon="7.13569">
        <ele>381</ele>
        <time>2016-08-20T14:41:56Z</time>
      </trkpt>
      <trkpt lat="47.75663" lon="7.13557">
        <ele>380</ele>
        <time>2016-08-20T14:42:07Z</time>
      </trkpt>
      <trkpt lat="47.75667" lon="7.13538">
        <ele>379</ele>
        <time>2016-08-20T14:42:18Z</time>
      </trkpt>
      <trkpt lat="47.75674" lon="7.13502">
        <ele>381</ele>
        <time>2016-08-20T14:42:36Z</time>
      </trkpt>
      <trkpt lat="47.7568" lon="7.13468">
        <ele>381</ele>
        <time>2016-08-20T14:42:48Z</time>
      </trkpt>
      <trkpt lat="47.7568" lon="7.13468">
        <ele>381</ele>
        <time>2016-08-20T14:42:53Z</time>
      </trkpt>
      <trkpt lat="47.75674" lon="7.13455">
        <ele>380</ele>
        <time>2016-08-20T14:42:56Z</time>
      </trkpt>
      <trkpt lat="47.75678" lon="7.13439">
        <ele>385</ele>
        <time>2016-08-20T14:43:06Z</time>
      </trkpt>
      <trkpt lat="47.75681" lon="7.13415">
        <ele>386</ele>
        <time>2016-08-20T14:43:22Z</time>
      </trkpt>
      <trkpt lat="47.75687" lon="7.13391">
        <ele>385</ele>
        <time>2016-08-20T14:43:38Z</time>
      </trkpt>
      <trkpt lat="47.75692" lon="7.13367">
        <ele>387</ele>
        <time>2016-08-20T14:43:52Z</time>
      </trkpt>
      <trkpt lat="47.75704" lon="7.13341">
        <ele>384</ele>
        <time>2016-08-20T14:44:10Z</time>
      </trkpt>
      <trkpt lat="47.75709" lon="7.13343">
        <ele>385</ele>
        <time>2016-08-20T14:44:12Z</time>
      </trkpt>
      <trkpt lat="47.7571" lon="7.13329">
        <ele>383</ele>
        <time>2016-08-20T14:44:27Z</time>
      </trkpt>
      <trkpt lat="47.75721" lon="7.13301">
        <ele>381</ele>
        <time>2016-08-20T14:44:51Z</time>
      </trkpt>
      <trkpt lat="47.75729" lon="7.13281">
        <ele>385</ele>
        <time>2016-08-20T14:45:02Z</time>
      </trkpt>
      <trkpt lat="47.75719" lon="7.13275">
        <ele>382</ele>
        <time>2016-08-20T14:45:14Z</time>
      </trkpt>
      <trkpt lat="47.75706" lon="7.13269">
        <ele>384</ele>
        <time>2016-08-20T14:45:25Z</time>
      </trkpt>
      <trkpt lat="47.75694" lon="7.13253">
        <ele>385</ele>
        <time>2016-08-20T14:45:41Z</time>
      </trkpt>
      <trkpt lat="47.75683" lon="7.13244">
        <ele>383</ele>
        <time>2016-08-20T14:45:55Z</time>
      </trkpt>
      <trkpt lat="47.75661" lon="7.13239">
        <ele>382</ele>
        <time>2016-08-20T14:46:14Z</time>
      </trkpt>
      <trkpt lat="47.75641" lon="7.13233">
        <ele>382</ele>
        <time>2016-08-20T14:46:29Z</time>
      </trkpt>
      <trkpt lat="47.75627" lon="7.1323">
        <ele>380</ele>
        <time>2016-08-20T14:46:41Z</time>
      </trkpt>
      <trkpt lat="47.75606" lon="7.13224">
        <ele>380</ele>
        <time>2016-08-20T14:46:57Z</time>
      </trkpt>
      <trkpt lat="47.75599" lon="7.13223">
        <ele>378</ele>
        <time>2016-08-20T14:47:04Z</time>
      </trkpt>
      <trkpt lat="47.75579" lon="7.13217">
        <ele>373</ele>
        <time>2016-08-20T14:47:20Z</time>
      </trkpt>
      <trkpt lat="47.75559" lon="7.13212">
        <ele>370</ele>
        <time>2016-08-20T14:47:36Z</time>
      </trkpt>
      <trkpt lat="47.75541" lon="7.13206">
        <ele>371</ele>
        <time>2016-08-20T14:47:51Z</time>
      </trkpt>
      <trkpt lat="47.75529" lon="7.13193">
        <ele>363</ele>
        <time>2016-08-20T14:48:05Z</time>
      </trkpt>
      <trkpt lat="47.75513" lon="7.13176">
        <ele>364</ele>
        <time>2016-08-20T14:48:22Z</time>
      </trkpt>
      <trkpt lat="47.75503" lon="7.13168">
        <ele>365</ele>
        <time>2016-08-20T14:48:30Z</time>
      </trkpt>
      <trkpt lat="47.7549" lon="7.13158">
        <ele>365</ele>
        <time>2016-08-20T14:48:41Z</time>
      </trkpt>
      <trkpt lat="47.75476" lon="7.13147">
        <ele>366</ele>
        <time>2016-08-20T14:48:53Z</time>
      </trkpt>
      <trkpt lat="47.75462" lon="7.13136">
        <ele>370</ele>
        <time>2016-08-20T14:49:06Z</time>
      </trkpt>
      <trkpt lat="47.75442" lon="7.13117">
        <ele>369</ele>
        <time>2016-08-20T14:49:25Z</time>
      </trkpt>
      <trkpt lat="47.7543" lon="7.13105">
        <ele>371</ele>
        <time>2016-08-20T14:49:36Z</time>
      </trkpt>
      <trkpt lat="47.75419" lon="7.13097">
        <ele>371</ele>
        <time>2016-08-20T14:49:47Z</time>
      </trkpt>
      <trkpt lat="47.75404" lon="7.13082">
        <ele>371</ele>
        <time>2016-08-20T14:50:03Z</time>
      </trkpt>
      <trkpt lat="47.75389" lon="7.13066">
        <ele>370</ele>
        <time>2016-08-20T14:50:21Z</time>
      </trkpt>
      <trkpt lat="47.75377" lon="7.13053">
        <ele>371</ele>
        <time>2016-08-20T14:50:33Z</time>
      </trkpt>
      <trkpt lat="47.75361" lon="7.1304">
        <ele>371</ele>
        <time>2016-08-20T14:50:49Z</time>
      </trkpt>
      <trkpt lat="47.75347" lon="7.13027">
        <ele>372</ele>
        <time>2016-08-20T14:51:04Z</time>
      </trkpt>
      <trkpt lat="47.75335" lon="7.13017">
        <ele>373</ele>
        <time>2016-08-20T14:51:17Z</time>
      </trkpt>
      <trkpt lat="47.75321" lon="7.13004">
        <ele>375</ele>
        <time>2016-08-20T14:51:33Z</time>
      </trkpt>
      <trkpt lat="47.75302" lon="7.12989">
        <ele>375</ele>
        <time>2016-08-20T14:51:52Z</time>
      </trkpt>
      <trkpt lat="47.75286" lon="7.12975">
        <ele>375</ele>
        <time>2016-08-20T14:52:09Z</time>
      </trkpt>
      <trkpt lat="47.75273" lon="7.12963">
        <ele>377</ele>
        <time>2016-08-20T14:52:23Z</time>
      </trkpt>
      <trkpt lat="47.7526" lon="7.12952">
        <ele>378</ele>
        <time>2016-08-20T14:52:37Z</time>
      </trkpt>
      <trkpt lat="47.75245" lon="7.12938">
        <ele>377</ele>
        <time>2016-08-20T14:52:53Z</time>
      </trkpt>
      <trkpt lat="47.75234" lon="7.12928">
        <ele>379</ele>
        <time>2016-08-20T14:53:05Z</time>
      </trkpt>
      <trkpt lat="47.75219" lon="7.12914">
        <ele>382</ele>
        <time>2016-08-20T14:53:20Z</time>
      </trkpt>
      <trkpt lat="47.7521" lon="7.12907">
        <ele>382</ele>
        <time>2016-08-20T14:53:29Z</time>
      </trkpt>
      <trkpt lat="47.75195" lon="7.12895">
        <ele>383</ele>
        <time>2016-08-20T14:53:46Z</time>
      </trkpt>
      <trkpt lat="47.75178" lon="7.1288">
        <ele>384</ele>
        <time>2016-08-20T14:54:02Z</time>
      </trkpt>
      <trkpt lat="47.7517" lon="7.12873">
        <ele>385</ele>
        <time>2016-08-20T14:54:10Z</time>
      </trkpt>
      <trkpt lat="47.75155" lon="7.1286">
        <ele>387</ele>
        <time>2016-08-20T14:54:25Z</time>
      </trkpt>
      <trkpt lat="47.75145" lon="7.12854">
        <ele>386</ele>
        <time>2016-08-20T14:54:35Z</time>
      </trkpt>
      <trkpt lat="47.75128" lon="7.12838">
        <ele>386</ele>
        <time>2016-08-20T14:54:53Z</time>
      </trkpt>
      <trkpt lat="47.75116" lon="7.12824">
        <ele>389</ele>
        <time>2016-08-20T14:55:07Z</time>
      </trkpt>
      <trkpt lat="47.75112" lon="7.12809">
        <ele>388</ele>
        <time>2016-08-20T14:55:21Z</time>
      </trkpt>
      <trkpt lat="47.75116" lon="7.12772">
        <ele>391</ele>
        <time>2016-08-20T14:55:41Z</time>
      </trkpt>
      <trkpt lat="47.75126" lon="7.12754">
        <ele>391</ele>
        <time>2016-08-20T14:55:56Z</time>
      </trkpt>
      <trkpt lat="47.75139" lon="7.12738">
        <ele>393</ele>
        <time>2016-08-20T14:56:08Z</time>
      </trkpt>
      <trkpt lat="47.75148" lon="7.12719">
        <ele>398</ele>
        <time>2016-08-20T14:56:18Z</time>
      </trkpt>
      <trkpt lat="47.75153" lon="7.12698">
        <ele>403</ele>
        <time>2016-08-20T14:56:29Z</time>
      </trkpt>
      <trkpt lat="47.75159" lon="7.12663">
        <ele>397</ele>
        <time>2016-08-20T14:56:48Z</time>
      </trkpt>
      <trkpt lat="47.75155" lon="7.12632">
        <ele>398</ele>
        <time>2016-08-20T14:57:02Z</time>
      </trkpt>
      <trkpt lat="47.75155" lon="7.12611">
        <ele>401</ele>
        <time>2016-08-20T14:57:14Z</time>
      </trkpt>
      <trkpt lat="47.75157" lon="7.12582">
        <ele>405</ele>
        <time>2016-08-20T14:57:27Z</time>
      </trkpt>
      <trkpt lat="47.75163" lon="7.12569">
        <ele>400</ele>
        <time>2016-08-20T14:57:36Z</time>
      </trkpt>
      <trkpt lat="47.75174" lon="7.12542">
        <ele>397</ele>
        <time>2016-08-20T14:57:53Z</time>
      </trkpt>
      <trkpt lat="47.7518" lon="7.12521">
        <ele>398</ele>
        <time>2016-08-20T14:58:06Z</time>
      </trkpt>
      <trkpt lat="47.75184" lon="7.12501">
        <ele>395</ele>
        <time>2016-08-20T14:58:18Z</time>
      </trkpt>
      <trkpt lat="47.75191" lon="7.12482">
        <ele>398</ele>
        <time>2016-08-20T14:58:32Z</time>
      </trkpt>
      <trkpt lat="47.75199" lon="7.12455">
        <ele>400</ele>
        <time>2016-08-20T14:58:47Z</time>
      </trkpt>
      <trkpt lat="47.75206" lon="7.12428">
        <ele>400</ele>
        <time>2016-08-20T14:58:59Z</time>
      </trkpt>
      <trkpt lat="47.7521" lon="7.12416">
        <ele>401</ele>
        <time>2016-08-20T14:59:09Z</time>
      </trkpt>
      <trkpt lat="47.75216" lon="7.12379">
        <ele>399</ele>
        <time>2016-08-20T14:59:29Z</time>
      </trkpt>
      <trkpt lat="47.75219" lon="7.12356">
        <ele>401</ele>
        <time>2016-08-20T14:59:40Z</time>
      </trkpt>
      <trkpt lat="47.75224" lon="7.12329">
        <ele>402</ele>
        <time>2016-08-20T14:59:57Z</time>
      </trkpt>
      <trkpt lat="47.75227" lon="7.12296">
        <ele>400</ele>
        <time>2016-08-20T15:00:14Z</time>
      </trkpt>
      <trkpt lat="47.75227" lon="7.12293">
        <ele>400</ele>
        <time>2016-08-20T15:00:15Z</time>
      </trkpt>
      <trkpt lat="47.75228" lon="7.12279">
        <ele>401</ele>
        <time>2016-08-20T15:00:26Z</time>
      </trkpt>
      <trkpt lat="47.75234" lon="7.12251">
        <ele>402</ele>
        <time>2016-08-20T15:00:37Z</time>
      </trkpt>
      <trkpt lat="47.75238" lon="7.12225">
        <ele>402</ele>
        <time>2016-08-20T15:00:50Z</time>
      </trkpt>
      <trkpt lat="47.75253" lon="7.12207">
        <ele>401</ele>
        <time>2016-08-20T15:01:01Z</time>
      </trkpt>
      <trkpt lat="47.75254" lon="7.12186">
        <ele>401</ele>
        <time>2016-08-20T15:01:11Z</time>
      </trkpt>
      <trkpt lat="47.75261" lon="7.12171">
        <ele>400</ele>
        <time>2016-08-20T15:01:26Z</time>
      </trkpt>
      <trkpt lat="47.75268" lon="7.12152">
        <ele>405</ele>
        <time>2016-08-20T15:01:39Z</time>
      </trkpt>
      <trkpt lat="47.75283" lon="7.12123">
        <ele>403</ele>
        <time>2016-08-20T15:01:55Z</time>
      </trkpt>
      <trkpt lat="47.7529" lon="7.12103">
        <ele>405</ele>
        <time>2016-08-20T15:02:08Z</time>
      </trkpt>
      <trkpt lat="47.75299" lon="7.12074">
        <ele>403</ele>
        <time>2016-08-20T15:02:24Z</time>
      </trkpt>
      <trkpt lat="47.75306" lon="7.12062">
        <ele>403</ele>
        <time>2016-08-20T15:02:34Z</time>
      </trkpt>
      <trkpt lat="47.75322" lon="7.12027">
        <ele>403</ele>
        <time>2016-08-20T15:02:53Z</time>
      </trkpt>
      <trkpt lat="47.7533" lon="7.12007">
        <ele>407</ele>
        <time>2016-08-20T15:03:08Z</time>
      </trkpt>
      <trkpt lat="47.75342" lon="7.11976">
        <ele>410</ele>
        <time>2016-08-20T15:03:26Z</time>
      </trkpt>
      <trkpt lat="47.75349" lon="7.11956">
        <ele>407</ele>
        <time>2016-08-20T15:03:39Z</time>
      </trkpt>
      <trkpt lat="47.75355" lon="7.11945">
        <ele>408</ele>
        <time>2016-08-20T15:03:49Z</time>
      </trkpt>
      <trkpt lat="47.75369" lon="7.11911">
        <ele>402</ele>
        <time>2016-08-20T15:04:10Z</time>
      </trkpt>
      <trkpt lat="47.75389" lon="7.1187">
        <ele>402</ele>
        <time>2016-08-20T15:04:29Z</time>
      </trkpt>
      <trkpt lat="47.75394" lon="7.11858">
        <ele>400</ele>
        <time>2016-08-20T15:04:38Z</time>
      </trkpt>
      <trkpt lat="47.75407" lon="7.11825">
        <ele>405</ele>
        <time>2016-08-20T15:04:59Z</time>
      </trkpt>
      <trkpt lat="47.75414" lon="7.11798">
        <ele>401</ele>
        <time>2016-08-20T15:05:15Z</time>
      </trkpt>
      <trkpt lat="47.75428" lon="7.11775">
        <ele>404</ele>
        <time>2016-08-20T15:05:31Z</time>
      </trkpt>
      <trkpt lat="47.75431" lon="7.11754">
        <ele>399</ele>
        <time>2016-08-20T15:05:43Z</time>
      </trkpt>
      <trkpt lat="47.75438" lon="7.11726">
        <ele>408</ele>
        <time>2016-08-20T15:05:56Z</time>
      </trkpt>
      <trkpt lat="47.75446" lon="7.11701">
        <ele>412</ele>
        <time>2016-08-20T15:06:11Z</time>
      </trkpt>
      <trkpt lat="47.75456" lon="7.11676">
        <ele>404</ele>
        <time>2016-08-20T15:06:28Z</time>
      </trkpt>
      <trkpt lat="47.75465" lon="7.11642">
        <ele>397</ele>
        <time>2016-08-20T15:06:46Z</time>
      </trkpt>
      <trkpt lat="47.75478" lon="7.1162">
        <ele>396</ele>
        <time>2016-08-20T15:07:00Z</time>
      </trkpt>
      <trkpt lat="47.75486" lon="7.11596">
        <ele>396</ele>
        <time>2016-08-20T15:07:12Z</time>
      </trkpt>
      <trkpt lat="47.75492" lon="7.11573">
        <ele>398</ele>
        <time>2016-08-20T15:07:26Z</time>
      </trkpt>
      <trkpt lat="47.75504" lon="7.11559">
        <ele>402</ele>
        <time>2016-08-20T15:07:38Z</time>
      </trkpt>
      <trkpt lat="47.75511" lon="7.11537">
        <ele>403</ele>
        <time>2016-08-20T15:07:50Z</time>
      </trkpt>
      <trkpt lat="47.75522" lon="7.11519">
        <ele>406</ele>
        <time>2016-08-20T15:08:02Z</time>
      </trkpt>
      <trkpt lat="47.7553" lon="7.11499">
        <ele>405</ele>
        <time>2016-08-20T15:08:15Z</time>
      </trkpt>
      <trkpt lat="47.75542" lon="7.11473">
        <ele>405</ele>
        <time>2016-08-20T15:08:31Z</time>
      </trkpt>
      <trkpt lat="47.75553" lon="7.1145">
        <ele>399</ele>
        <time>2016-08-20T15:08:47Z</time>
      </trkpt>
      <trkpt lat="47.75566" lon="7.11424">
        <ele>400</ele>
        <time>2016-08-20T15:09:04Z</time>
      </trkpt>
      <trkpt lat="47.75579" lon="7.11397">
        <ele>402</ele>
        <time>2016-08-20T15:09:21Z</time>
      </trkpt>
      <trkpt lat="47.75589" lon="7.11381">
        <ele>403</ele>
        <time>2016-08-20T15:09:32Z</time>
      </trkpt>
      <trkpt lat="47.75596" lon="7.11363">
        <ele>404</ele>
        <time>2016-08-20T15:09:40Z</time>
      </trkpt>
      <trkpt lat="47.75604" lon="7.11347">
        <ele>406</ele>
        <time>2016-08-20T15:09:51Z</time>
      </trkpt>
      <trkpt lat="47.75615" lon="7.11322">
        <ele>408</ele>
        <time>2016-08-20T15:10:08Z</time>
      </trkpt>
      <trkpt lat="47.75615" lon="7.11322">
        <ele>408</ele>
        <time>2016-08-20T15:10:16Z</time>
      </trkpt>
      <trkpt lat="47.75615" lon="7.11322">
        <ele>408</ele>
        <time>2016-08-20T15:10:17Z</time>
      </trkpt>
      <trkpt lat="47.75617" lon="7.11303">
        <ele>408</ele>
        <time>2016-08-20T15:10:23Z</time>
      </trkpt>
      <trkpt lat="47.75618" lon="7.11291">
        <ele>408</ele>
        <time>2016-08-20T15:10:32Z</time>
      </trkpt>
      <trkpt lat="47.7563" lon="7.11277">
        <ele>410</ele>
        <time>2016-08-20T15:10:43Z</time>
      </trkpt>
      <trkpt lat="47.75643" lon="7.11287">
        <ele>407</ele>
        <time>2016-08-20T15:10:59Z</time>
      </trkpt>
      <trkpt lat="47.75655" lon="7.11302">
        <ele>405</ele>
        <time>2016-08-20T15:11:15Z</time>
      </trkpt>
      <trkpt lat="47.75666" lon="7.11316">
        <ele>405</ele>
        <time>2016-08-20T15:11:28Z</time>
      </trkpt>
      <trkpt lat="47.75676" lon="7.11334">
        <ele>404</ele>
        <time>2016-08-20T15:11:41Z</time>
      </trkpt>
      <trkpt lat="47.75694" lon="7.11356">
        <ele>403</ele>
        <time>2016-08-20T15:11:58Z</time>
      </trkpt>
      <trkpt lat="47.75707" lon="7.11372">
        <ele>400</ele>
        <time>2016-08-20T15:12:14Z</time>
      </trkpt>
      <trkpt lat="47.7572" lon="7.11388">
        <ele>395</ele>
        <time>2016-08-20T15:12:28Z</time>
      </trkpt>
      <trkpt lat="47.75735" lon="7.11403">
        <ele>393</ele>
        <time>2016-08-20T15:12:44Z</time>
      </trkpt>
      <trkpt lat="47.75749" lon="7.11404">
        <ele>386</ele>
        <time>2016-08-20T15:12:57Z</time>
      </trkpt>
      <trkpt lat="47.75763" lon="7.11396">
        <ele>388</ele>
        <time>2016-08-20T15:13:07Z</time>
      </trkpt>
      <trkpt lat="47.7578" lon="7.11389">
        <ele>385</ele>
        <time>2016-08-20T15:13:22Z</time>
      </trkpt>
      <trkpt lat="47.75794" lon="7.1138">
        <ele>385</ele>
        <time>2016-08-20T15:13:36Z</time>
      </trkpt>
      <trkpt lat="47.75809" lon="7.11359">
        <ele>388</ele>
        <time>2016-08-20T15:13:52Z</time>
      </trkpt>
      <trkpt lat="47.75817" lon="7.11342">
        <ele>390</ele>
        <time>2016-08-20T15:14:02Z</time>
      </trkpt>
      <trkpt lat="47.75832" lon="7.11313">
        <ele>388</ele>
        <time>2016-08-20T15:14:19Z</time>
      </trkpt>
      <trkpt lat="47.75841" lon="7.11299">
        <ele>389</ele>
        <time>2016-08-20T15:14:29Z</time>
      </trkpt>
      <trkpt lat="47.75858" lon="7.11303">
        <ele>387</ele>
        <time>2016-08-20T15:14:44Z</time>
      </trkpt>
      <trkpt lat="47.75878" lon="7.11314">
        <ele>388</ele>
        <time>2016-08-20T15:15:00Z</time>
      </trkpt>
      <trkpt lat="47.7589" lon="7.11324">
        <ele>387</ele>
        <time>2016-08-20T15:15:11Z</time>
      </trkpt>
      <trkpt lat="47.75905" lon="7.11334">
        <ele>391</ele>
        <time>2016-08-20T15:15:24Z</time>
      </trkpt>
      <trkpt lat="47.75922" lon="7.11344">
        <ele>391</ele>
        <time>2016-08-20T15:15:37Z</time>
      </trkpt>
      <trkpt lat="47.75936" lon="7.11353">
        <ele>394</ele>
        <time>2016-08-20T15:15:48Z</time>
      </trkpt>
      <trkpt lat="47.75947" lon="7.11362">
        <ele>391</ele>
        <time>2016-08-20T15:15:59Z</time>
      </trkpt>
      <trkpt lat="47.75966" lon="7.11372">
        <ele>388</ele>
        <time>2016-08-20T15:16:15Z</time>
      </trkpt>
      <trkpt lat="47.75984" lon="7.11385">
        <ele>390</ele>
        <time>2016-08-20T15:16:32Z</time>
      </trkpt>
      <trkpt lat="47.76003" lon="7.11397">
        <ele>387</ele>
        <time>2016-08-20T15:16:47Z</time>
      </trkpt>
      <trkpt lat="47.76018" lon="7.11405">
        <ele>390</ele>
        <time>2016-08-20T15:16:59Z</time>
      </trkpt>
      <trkpt lat="47.76035" lon="7.11421">
        <ele>392</ele>
        <time>2016-08-20T15:17:15Z</time>
      </trkpt>
      <trkpt lat="47.76047" lon="7.11435">
        <ele>392</ele>
        <time>2016-08-20T15:17:28Z</time>
      </trkpt>
      <trkpt lat="47.76062" lon="7.11455">
        <ele>396</ele>
        <time>2016-08-20T15:17:45Z</time>
      </trkpt>
      <trkpt lat="47.7607" lon="7.11466">
        <ele>400</ele>
        <time>2016-08-20T15:17:55Z</time>
      </trkpt>
      <trkpt lat="47.76083" lon="7.11492">
        <ele>401</ele>
        <time>2016-08-20T15:18:20Z</time>
      </trkpt>
      <trkpt lat="47.76089" lon="7.11507">
        <ele>400</ele>
        <time>2016-08-20T15:18:30Z</time>
      </trkpt>
      <trkpt lat="47.76104" lon="7.11529">
        <ele>399</ele>
        <time>2016-08-20T15:18:46Z</time>
      </trkpt>
      <trkpt lat="47.76107" lon="7.11534">
        <ele>398</ele>
        <time>2016-08-20T15:18:50Z</time>
      </trkpt>
      <trkpt lat="47.76115" lon="7.1154">
        <ele>396</ele>
        <time>2016-08-20T15:19:01Z</time>
      </trkpt>
      <trkpt lat="47.76135" lon="7.11558">
        <ele>399</ele>
        <time>2016-08-20T15:19:20Z</time>
      </trkpt>
      <trkpt lat="47.76147" lon="7.11572">
        <ele>401</ele>
        <time>2016-08-20T15:19:33Z</time>
      </trkpt>
      <trkpt lat="47.76164" lon="7.11589">
        <ele>399</ele>
        <time>2016-08-20T15:19:53Z</time>
      </trkpt>
      <trkpt lat="47.76179" lon="7.1161">
        <ele>402</ele>
        <time>2016-08-20T15:20:08Z</time>
      </trkpt>
      <trkpt lat="47.76189" lon="7.11632">
        <ele>403</ele>
        <time>2016-08-20T15:20:22Z</time>
      </trkpt>
      <trkpt lat="47.76195" lon="7.11642">
        <ele>403</ele>
        <time>2016-08-20T15:20:32Z</time>
      </trkpt>
      <trkpt lat="47.76202" lon="7.11661">
        <ele>404</ele>
        <time>2016-08-20T15:20:45Z</time>
      </trkpt>
      <trkpt lat="47.76211" lon="7.11685">
        <ele>404</ele>
        <time>2016-08-20T15:21:00Z</time>
      </trkpt>
      <trkpt lat="47.76217" lon="7.11705">
        <ele>403</ele>
        <time>2016-08-20T15:21:12Z</time>
      </trkpt>
      <trkpt lat="47.76221" lon="7.1172">
        <ele>402</ele>
        <time>2016-08-20T15:21:22Z</time>
      </trkpt>
      <trkpt lat="47.76227" lon="7.11739">
        <ele>402</ele>
        <time>2016-08-20T15:21:35Z</time>
      </trkpt>
      <trkpt lat="47.76239" lon="7.11769">
        <ele>402</ele>
        <time>2016-08-20T15:21:53Z</time>
      </trkpt>
      <trkpt lat="47.76249" lon="7.11787">
        <ele>404</ele>
        <time>2016-08-20T15:22:06Z</time>
      </trkpt>
      <trkpt lat="47.76261" lon="7.11805">
        <ele>403</ele>
        <time>2016-08-20T15:22:22Z</time>
      </trkpt>
      <trkpt lat="47.76271" lon="7.11819">
        <ele>405</ele>
        <time>2016-08-20T15:22:35Z</time>
      </trkpt>
      <trkpt lat="47.76284" lon="7.11842">
        <ele>403</ele>
        <time>2016-08-20T15:22:53Z</time>
      </trkpt>
      <trkpt lat="47.76295" lon="7.11864">
        <ele>399</ele>
        <time>2016-08-20T15:23:09Z</time>
      </trkpt>
      <trkpt lat="47.76308" lon="7.11881">
        <ele>396</ele>
        <time>2016-08-20T15:23:25Z</time>
      </trkpt>
      <trkpt lat="47.76323" lon="7.11892">
        <ele>394</ele>
        <time>2016-08-20T15:23:39Z</time>
      </trkpt>
      <trkpt lat="47.76341" lon="7.11891">
        <ele>394</ele>
        <time>2016-08-20T15:23:58Z</time>
      </trkpt>
      <trkpt lat="47.76348" lon="7.11866">
        <ele>387</ele>
        <time>2016-08-20T15:24:15Z</time>
      </trkpt>
      <trkpt lat="47.76349" lon="7.11842">
        <ele>387</ele>
        <time>2016-08-20T15:24:29Z</time>
      </trkpt>
      <trkpt lat="47.76349" lon="7.11842">
        <ele>337.9</ele>
        <time>2016-08-20T15:24:36Z</time>
      </trkpt>
      <trkpt lat="47.76349" lon="7.11842">
        <ele>337.9</ele>
        <time>2016-08-20T15:24:42Z</time>
      </trkpt>
    </trkseg>
  </trk>
</gpx>